Time;durP1;ratioP1;P1;durP2;ratioP2;P2;SDS_P1;SDS_P2;PMS_P1;PMS_P2;Temp;Humidity;BMP_temperature;BMP_pressure;BME280_temperature;BME280_humidity;BME280_pressure;Samples;Min_cycle;Max_cycle;Signal;HPM_P1;HPM_P2
2024/01/21 00:02:21;;;;;;;82.88;51.78;;;12.70;54.50;;;;;;4899903;28;94087;-75
2024/01/21 00:04:48;;;;;;;83.20;51.60;;;12.60;54.40;;;;;;4896478;28;95500;-74
2024/01/21 00:07:13;;;;;;;83.22;51.47;;;12.60;54.40;;;;;;4898873;28;95809;-75
2024/01/21 00:09:39;;;;;;;83.45;51.67;;;12.60;54.60;;;;;;4894008;28;94039;-79
2024/01/21 00:12:05;;;;;;;84.05;51.75;;;12.60;54.50;;;;;;4896752;28;95956;-81
2024/01/21 00:14:30;;;;;;;83.93;51.47;;;12.60;54.50;;;;;;4897352;28;94456;-80
2024/01/21 00:16:56;;;;;;;83.13;51.97;;;12.60;54.50;;;;;;4897438;28;94235;-79
2024/01/21 00:19:22;;;;;;;82.53;51.60;;;12.60;54.70;;;;;;4897500;28;95366;-80
2024/01/21 00:21:47;;;;;;;82.32;51.60;;;12.60;54.50;;;;;;4889513;28;96722;-77
2024/01/21 00:24:13;;;;;;;82.43;51.70;;;12.60;54.50;;;;;;4896838;28;96296;-77
2024/01/21 00:26:39;;;;;;;83.00;51.55;;;12.60;54.40;;;;;;4899551;28;94630;-73
2024/01/21 00:29:04;;;;;;;83.65;51.60;;;12.60;54.50;;;;;;4894720;28;94992;-77
2024/01/21 00:31:30;;;;;;;84.05;51.78;;;12.50;54.50;;;;;;4893879;28;94585;-73
2024/01/21 00:33:56;;;;;;;83.95;51.80;;;12.50;54.60;;;;;;4893297;28;94703;-74
2024/01/21 00:36:21;;;;;;;82.90;51.40;;;12.50;54.40;;;;;;4893565;28;95632;-80
2024/01/21 00:38:47;;;;;;;81.57;51.25;;;12.50;54.40;;;;;;4896914;28;99585;-78
2024/01/21 00:41:16;;;;;;;81.82;51.13;;;12.50;54.60;;;;;;4897056;28;95373;-76
2024/01/21 00:43:42;;;;;;;83.03;51.53;;;12.50;54.60;;;;;;4900878;28;95170;-79
2024/01/21 00:46:08;;;;;;;82.18;51.55;;;12.50;54.50;;;;;;4892465;28;95398;-77
2024/01/21 00:48:34;;;;;;;83.00;51.42;;;12.50;54.50;;;;;;4892375;28;97589;-75
2024/01/21 00:51:01;;;;;;;81.57;51.33;;;12.40;54.50;;;;;;4897156;28;95172;-78
2024/01/21 00:53:26;;;;;;;83.13;51.30;;;12.40;54.50;;;;;;4898413;28;98784;-77
2024/01/21 00:55:52;;;;;;;82.47;51.40;;;12.40;54.60;;;;;;4899261;28;95156;-80
2024/01/21 00:58:18;;;;;;;82.13;51.20;;;12.40;54.60;;;;;;4898586;28;97405;-70
2024/01/21 01:00:43;;;;;;;82.00;50.92;;;12.40;54.60;;;;;;4890336;28;96811;-69
2024/01/21 01:03:09;;;;;;;82.97;51.40;;;12.40;54.50;;;;;;4892894;28;95399;-71
2024/01/21 01:05:35;;;;;;;82.45;51.33;;;12.40;54.70;;;;;;4897180;28;95944;-70
2024/01/21 01:08:01;;;;;;;81.28;50.63;;;12.40;54.50;;;;;;4891329;28;95734;-69
2024/01/21 01:10:27;;;;;;;83.03;51.42;;;12.40;54.60;;;;;;4891251;28;94691;-70
2024/01/21 01:12:52;;;;;;;82.28;51.55;;;12.40;54.40;;;;;;4890171;28;97826;-70
2024/01/21 01:15:18;;;;;;;81.88;51.78;;;12.40;54.50;;;;;;4893879;28;95683;-68
2024/01/21 01:17:47;;;;;;;81.50;51.60;;;12.40;54.50;;;;;;4897469;28;95426;-68
2024/01/21 01:20:13;;;;;;;82.35;51.15;;;12.30;54.60;;;;;;4895680;28;95062;-68
2024/01/21 01:22:38;;;;;;;81.85;51.78;;;12.30;54.60;;;;;;4889588;28;96157;-70
2024/01/21 01:25:05;;;;;;;82.38;51.35;;;12.30;54.50;;;;;;4892508;28;95606;-71
2024/01/21 01:27:30;;;;;;;81.32;50.95;;;12.40;54.90;;;;;;4891171;28;95524;-68
2024/01/21 01:29:56;;;;;;;81.95;51.28;;;12.30;54.60;;;;;;4911038;28;95458;-71
2024/01/21 01:32:22;;;;;;;81.10;51.10;;;12.30;54.60;;;;;;4895554;28;96545;-68
2024/01/21 01:34:49;;;;;;;82.03;51.50;;;12.30;54.70;;;;;;4893097;28;95933;-71
2024/01/21 01:37:15;;;;;;;81.30;50.85;;;12.30;54.70;;;;;;4894238;28;96852;-69
2024/01/21 01:39:41;;;;;;;81.63;51.17;;;12.30;54.60;;;;;;4886971;28;96977;-70
2024/01/21 01:42:07;;;;;;;82.72;51.13;;;12.30;54.70;;;;;;4889342;28;95410;-71
2024/01/21 01:44:32;;;;;;;83.03;50.78;;;12.30;54.70;;;;;;4892866;28;95185;-69
2024/01/21 01:46:59;;;;;;;84.90;51.55;;;12.30;54.60;;;;;;4894446;28;95991;-71
2024/01/21 01:49:26;;;;;;;81.80;51.03;;;12.30;54.60;;;;;;4885441;28;94932;-69
2024/01/21 01:51:53;;;;;;;81.53;50.78;;;12.30;54.70;;;;;;4892974;28;96092;-70
2024/01/21 01:54:23;;;;;;;82.40;50.88;;;12.30;54.70;;;;;;4895610;28;94011;-69
2024/01/21 01:56:49;;;;;;;81.18;50.90;;;12.20;54.60;;;;;;4890765;28;95750;-68
2024/01/21 01:59:18;;;;;;;81.13;50.97;;;12.30;54.80;;;;;;4888928;28;94975;-69
2024/01/21 02:01:44;;;;;;;81.57;50.83;;;12.20;54.70;;;;;;4887349;28;97321;-69
2024/01/21 02:04:11;;;;;;;80.00;50.53;;;12.20;54.80;;;;;;4893950;28;96114;-69
2024/01/21 02:06:40;;;;;;;81.63;50.38;;;12.20;54.70;;;;;;4885653;28;95031;-69
2024/01/21 02:09:06;;;;;;;81.22;50.72;;;12.20;54.80;;;;;;4888934;28;96199;-70
2024/01/21 02:11:32;;;;;;;80.75;50.95;;;12.20;54.70;;;;;;4889083;28;95006;-69
2024/01/21 02:13:57;;;;;;;81.05;51.17;;;12.20;54.80;;;;;;4892222;28;96904;-69
2024/01/21 02:16:23;;;;;;;80.05;50.35;;;12.20;54.80;;;;;;4893346;28;95916;-70
2024/01/21 02:18:50;;;;;;;81.10;51.13;;;12.20;54.90;;;;;;4889237;28;95524;-70
2024/01/21 02:21:16;;;;;;;81.20;50.90;;;12.20;54.90;;;;;;4890730;28;95604;-71
2024/01/21 02:23:43;;;;;;;79.78;50.15;;;12.20;54.80;;;;;;4889924;28;94878;-69
2024/01/21 02:26:09;;;;;;;80.07;50.70;;;12.20;55.00;;;;;;4890140;28;95819;-70
2024/01/21 02:28:34;;;;;;;80.60;50.92;;;12.20;55.00;;;;;;4896904;28;100071;-70
2024/01/21 02:31:00;;;;;;;80.53;50.60;;;12.20;54.90;;;;;;4892306;28;96671;-68
2024/01/21 02:33:26;;;;;;;80.90;50.75;;;12.10;54.80;;;;;;4890316;28;97931;-70
2024/01/21 02:35:52;;;;;;;80.80;50.88;;;12.20;54.90;;;;;;4887793;28;94992;-70
2024/01/21 02:38:18;;;;;;;81.63;50.70;;;12.10;54.90;;;;;;4889044;28;97358;-69
2024/01/21 02:40:44;;;;;;;80.80;50.58;;;12.20;54.90;;;;;;4886127;28;96414;-69
2024/01/21 02:43:09;;;;;;;80.60;50.78;;;12.10;55.40;;;;;;4895696;28;95429;-69
2024/01/21 02:45:35;;;;;;;80.43;50.42;;;12.20;54.80;;;;;;4893159;28;94766;-69
2024/01/21 02:48:01;;;;;;;80.40;50.83;;;12.20;54.80;;;;;;4893839;28;96434;-70
2024/01/21 02:50:27;;;;;;;80.88;50.58;;;12.20;54.90;;;;;;4889367;28;96287;-69
2024/01/21 02:52:52;;;;;;;80.95;50.58;;;12.10;54.90;;;;;;4893032;28;96737;-70
2024/01/21 02:55:18;;;;;;;80.57;50.55;;;12.20;54.90;;;;;;4891413;28;95841;-67
2024/01/21 02:57:44;;;;;;;79.95;50.72;;;12.20;54.90;;;;;;4888594;28;99678;-69
2024/01/21 03:00:10;;;;;;;80.65;50.53;;;12.20;54.90;;;;;;4889769;28;95734;-70
2024/01/21 03:02:36;;;;;;;80.78;50.92;;;12.20;55.00;;;;;;4892393;28;96875;-71
2024/01/21 03:05:02;;;;;;;79.97;50.45;;;12.20;54.90;;;;;;4893980;28;94565;-68
2024/01/21 03:07:27;;;;;;;82.55;50.70;;;12.10;55.50;;;;;;4890877;28;100828;-71
2024/01/21 03:09:53;;;;;;;81.00;50.65;;;12.20;54.90;;;;;;4887756;28;96556;-68
2024/01/21 03:12:18;;;;;;;80.88;50.85;;;12.10;54.90;;;;;;4891431;28;95609;-68
2024/01/21 03:14:44;;;;;;;79.85;50.28;;;12.10;54.80;;;;;;4893133;28;96662;-68
2024/01/21 03:17:10;;;;;;;80.50;50.58;;;12.10;55.00;;;;;;4890368;28;96760;-70
2024/01/21 03:19:35;;;;;;;80.18;50.53;;;12.10;54.90;;;;;;4890543;28;95217;-68
2024/01/21 03:22:01;;;;;;;79.97;49.85;;;12.20;55.00;;;;;;4888332;28;99520;-68
2024/01/21 03:24:27;;;;;;;79.93;50.33;;;12.10;54.90;;;;;;4892390;28;95679;-70
2024/01/21 03:26:52;;;;;;;80.05;50.75;;;12.10;55.00;;;;;;4893214;28;95943;-69
2024/01/21 03:29:19;;;;;;;79.22;50.30;;;12.10;55.10;;;;;;4887564;28;95317;-70
2024/01/21 03:31:44;;;;;;;80.38;50.35;;;12.10;54.90;;;;;;4890412;28;95515;-70
2024/01/21 03:34:10;;;;;;;80.30;50.35;;;12.10;54.90;;;;;;4887149;28;94668;-70
2024/01/21 03:36:36;;;;;;;79.35;50.03;;;12.10;55.00;;;;;;4891617;28;96262;-69
2024/01/21 03:39:01;;;;;;;80.10;50.47;;;12.10;54.90;;;;;;4890920;28;96808;-69
2024/01/21 03:41:27;;;;;;;79.97;50.35;;;12.10;54.90;;;;;;4887739;28;96929;-69
2024/01/21 03:43:52;;;;;;;79.97;50.40;;;12.20;54.90;;;;;;4891316;28;95325;-70
2024/01/21 03:46:18;;;;;;;79.75;50.22;;;12.10;55.00;;;;;;4891834;28;95710;-70
2024/01/21 03:48:44;;;;;;;79.97;50.50;;;12.10;54.90;;;;;;4890769;28;95590;-69
2024/01/21 03:51:10;;;;;;;79.75;50.33;;;12.10;55.00;;;;;;4897667;28;95980;-69
2024/01/21 03:53:39;;;;;;;79.78;50.45;;;12.10;54.90;;;;;;4885635;28;96060;-71
2024/01/21 03:56:05;;;;;;;80.18;50.65;;;12.00;55.00;;;;;;4888402;28;98821;-70
2024/01/21 03:58:31;;;;;;;81.45;50.40;;;12.10;55.00;;;;;;4892073;28;100990;-69
2024/01/21 04:00:57;;;;;;;80.68;50.95;;;12.10;55.10;;;;;;4887537;28;96709;-70
2024/01/21 04:03:22;;;;;;;79.57;50.35;;;12.00;54.90;;;;;;4892527;28;97420;-70
2024/01/21 04:05:48;;;;;;;79.32;50.40;;;12.10;55.10;;;;;;4890795;28;99793;-69
2024/01/21 04:08:14;;;;;;;79.82;50.63;;;12.10;55.00;;;;;;4889191;28;95059;-70
2024/01/21 04:10:40;;;;;;;80.03;50.38;;;12.10;54.90;;;;;;4886147;28;96909;-70
2024/01/21 04:13:05;;;;;;;80.03;50.38;;;12.10;55.00;;;;;;4893670;28;95218;-69
2024/01/21 04:15:31;;;;;;;80.88;50.75;;;12.00;55.00;;;;;;4887630;28;96701;-69
2024/01/21 04:17:57;;;;;;;79.53;50.45;;;12.10;55.00;;;;;;4895659;28;96550;-70
2024/01/21 04:20:22;;;;;;;79.80;50.35;;;12.10;55.00;;;;;;4884521;28;95482;-70
2024/01/21 04:22:48;;;;;;;80.00;50.50;;;12.00;55.00;;;;;;4886986;28;96244;-69
2024/01/21 04:25:14;;;;;;;79.85;50.08;;;12.00;54.80;;;;;;4890153;28;96249;-69
2024/01/21 04:27:39;;;;;;;80.28;50.47;;;12.10;55.00;;;;;;4889889;28;97519;-70
2024/01/21 04:30:05;;;;;;;80.05;50.70;;;12.10;54.90;;;;;;4885199;28;95109;-70
2024/01/21 04:32:31;;;;;;;79.75;50.38;;;12.00;54.90;;;;;;4888688;28;95297;-69
2024/01/21 04:34:57;;;;;;;79.50;50.15;;;12.00;54.80;;;;;;4892565;28;95645;-70
2024/01/21 04:37:23;;;;;;;79.82;50.55;;;12.00;54.90;;;;;;4893324;28;96469;-69
2024/01/21 04:39:48;;;;;;;81.32;50.80;;;12.00;54.80;;;;;;4890198;28;96104;-71
2024/01/21 04:42:14;;;;;;;80.55;50.83;;;12.00;54.80;;;;;;4890463;28;95071;-70
2024/01/21 04:44:40;;;;;;;79.85;50.53;;;12.00;55.00;;;;;;4892705;28;95212;-69
2024/01/21 04:47:05;;;;;;;79.25;50.42;;;12.00;55.00;;;;;;4894436;28;95211;-68
2024/01/21 04:49:31;;;;;;;80.40;50.63;;;11.90;55.00;;;;;;4898081;28;95762;-70
2024/01/21 04:51:57;;;;;;;79.93;50.63;;;12.00;55.00;;;;;;4890020;28;97411;-70
2024/01/21 04:54:22;;;;;;;80.20;50.58;;;11.90;55.00;;;;;;4897823;28;95424;-69
2024/01/21 04:56:48;;;;;;;80.88;50.47;;;12.00;55.00;;;;;;4890765;28;95650;-70
2024/01/21 04:59:14;;;;;;;80.07;50.05;;;12.00;55.00;;;;;;4897724;28;95434;-70
2024/01/21 05:01:40;;;;;;;79.00;50.30;;;12.00;55.00;;;;;;4891368;28;95554;-70
2024/01/21 05:04:06;;;;;;;80.03;50.38;;;12.00;55.00;;;;;;4893279;28;95596;-68
2024/01/21 05:06:32;;;;;;;79.35;50.42;;;12.00;54.90;;;;;;4890182;28;96504;-68
2024/01/21 05:08:57;;;;;;;79.60;50.58;;;12.00;54.90;;;;;;4898470;28;95164;-70
2024/01/21 05:11:23;;;;;;;80.43;50.72;;;12.00;54.90;;;;;;4888634;28;95075;-70
2024/01/21 05:13:49;;;;;;;80.30;50.80;;;12.00;54.90;;;;;;4893179;28;96455;-68
2024/01/21 05:16:15;;;;;;;80.43;50.13;;;12.00;54.70;;;;;;4896499;28;96151;-70
2024/01/21 05:18:40;;;;;;;79.63;50.58;;;12.00;54.80;;;;;;4898166;28;95746;-69
2024/01/21 05:21:06;;;;;;;79.65;50.60;;;12.00;55.00;;;;;;4900709;28;95545;-70
2024/01/21 05:23:35;;;;;;;79.68;50.40;;;12.00;54.90;;;;;;4889293;28;95892;-69
2024/01/21 05:26:00;;;;;;;80.90;50.80;;;12.00;54.80;;;;;;4893006;28;95673;-71
2024/01/21 05:28:26;;;;;;;79.55;50.53;;;11.90;54.90;;;;;;4892914;28;96112;-68
2024/01/21 05:30:52;;;;;;;79.35;50.47;;;11.90;55.00;;;;;;4895152;28;97540;-70
2024/01/21 05:33:17;;;;;;;80.05;50.35;;;12.00;54.90;;;;;;4892652;28;94380;-70
2024/01/21 05:35:43;;;;;;;79.63;50.13;;;12.00;54.80;;;;;;4892348;28;98443;-69
2024/01/21 05:38:09;;;;;;;79.72;50.63;;;12.00;54.90;;;;;;4892999;28;96197;-69
2024/01/21 05:40:35;;;;;;;79.68;50.25;;;12.00;54.90;;;;;;4898457;28;96144;-68
2024/01/21 05:43:01;;;;;;;79.68;50.13;;;12.00;54.90;;;;;;4889462;28;95084;-70
2024/01/21 05:45:30;;;;;;;79.82;50.55;;;12.00;54.90;;;;;;4892577;28;95339;-70
2024/01/21 05:47:55;;;;;;;80.32;50.47;;;12.00;54.90;;;;;;4893898;28;95497;-68
2024/01/21 05:50:21;;;;;;;79.47;50.33;;;12.00;55.00;;;;;;4889991;28;98693;-70
2024/01/21 05:52:47;;;;;;;79.72;50.38;;;11.90;54.90;;;;;;4895263;28;95451;-70
2024/01/21 05:55:12;;;;;;;79.97;50.45;;;12.00;54.80;;;;;;4889907;28;95205;-69
2024/01/21 05:57:39;;;;;;;79.38;50.15;;;12.00;54.80;;;;;;4891985;28;98733;-70
2024/01/21 06:00:06;;;;;;;79.43;50.25;;;12.00;54.70;;;;;;4887293;28;95339;-70
2024/01/21 06:02:32;;;;;;;80.05;50.47;;;12.00;54.80;;;;;;4893087;28;101503;-70
2024/01/21 06:04:57;;;;;;;79.60;50.35;;;12.00;54.70;;;;;;4891169;28;97605;-70
2024/01/21 06:07:23;;;;;;;79.35;50.38;;;12.00;54.90;;;;;;4893248;28;95340;-70
2024/01/21 06:09:49;;;;;;;79.85;50.28;;;11.90;54.80;;;;;;4889981;28;96491;-71
2024/01/21 06:12:14;;;;;;;80.50;50.45;;;11.90;54.70;;;;;;4895864;28;95056;-70
2024/01/21 06:14:40;;;;;;;79.88;50.08;;;11.90;54.80;;;;;;4887017;28;96498;-71
2024/01/21 06:17:06;;;;;;;80.18;50.35;;;11.90;54.80;;;;;;4894325;28;95371;-79
2024/01/21 06:19:31;;;;;;;78.90;50.13;;;12.00;54.90;;;;;;4895203;28;94734;-79
2024/01/21 06:21:57;;;;;;;80.38;50.50;;;12.00;54.80;;;;;;4893043;28;93581;-76
2024/01/21 06:24:23;;;;;;;79.40;50.17;;;11.90;54.80;;;;;;4893707;28;95694;-80
2024/01/21 06:26:51;;;;;;;80.35;50.75;;;12.00;54.80;;;;;;4892428;28;95516;-75
2024/01/21 06:29:17;;;;;;;80.35;50.40;;;12.00;54.80;;;;;;4893660;28;96906;-77
2024/01/21 06:31:43;;;;;;;79.82;50.25;;;12.00;54.80;;;;;;4894244;28;94498;-74
2024/01/21 06:34:08;;;;;;;78.20;49.92;;;12.00;54.80;;;;;;4895669;28;96186;-77
2024/01/21 06:36:34;;;;;;;80.70;50.40;;;12.00;54.90;;;;;;4886630;28;96183;-77
2024/01/21 06:39:00;;;;;;;82.10;50.75;;;12.00;54.80;;;;;;4898443;28;94856;-78
2024/01/21 06:41:25;;;;;;;79.60;50.47;;;12.00;54.80;;;;;;4889145;28;94818;-76
2024/01/21 06:43:51;;;;;;;80.22;50.30;;;12.00;54.80;;;;;;4892522;28;94394;-76
2024/01/21 06:46:18;;;;;;;79.82;50.50;;;12.00;54.80;;;;;;4893138;28;95489;-80
2024/01/21 06:48:43;;;;;;;79.28;50.53;;;12.00;54.80;;;;;;4898915;28;94593;-78
2024/01/21 06:51:20;;;;;;;78.95;50.33;;;12.00;54.80;;;;;;4895328;28;94731;-75
2024/01/21 06:53:45;;;;;;;79.43;50.28;;;12.00;54.90;;;;;;4891676;28;96148;-78
2024/01/21 06:56:11;;;;;;;79.75;50.47;;;12.00;54.80;;;;;;4891079;28;94825;-77
2024/01/21 06:58:37;;;;;;;79.43;50.25;;;12.00;54.70;;;;;;4885564;28;94491;-76
2024/01/21 07:01:03;;;;;;;79.05;50.30;;;12.00;54.70;;;;;;4891154;28;95102;-76
2024/01/21 07:03:29;;;;;;;79.68;50.13;;;12.00;54.70;;;;;;4894144;28;95156;-81
2024/01/21 07:05:55;;;;;;;80.32;50.30;;;12.00;54.70;;;;;;4891888;28;94568;-72
2024/01/21 07:08:21;;;;;;;79.85;50.33;;;12.00;54.80;;;;;;4890729;28;95127;-73
2024/01/21 07:10:46;;;;;;;80.30;50.58;;;12.00;54.80;;;;;;4893135;28;94153;-79
2024/01/21 07:13:12;;;;;;;79.05;50.25;;;11.90;54.70;;;;;;4891685;28;95165;-75
2024/01/21 07:15:38;;;;;;;78.90;50.25;;;12.00;54.80;;;;;;4893198;28;94797;-72
2024/01/21 07:18:06;;;;;;;81.82;50.85;;;12.00;54.70;;;;;;4891066;28;95590;-78
2024/01/21 07:20:33;;;;;;;79.70;50.35;;;12.00;54.80;;;;;;4895281;28;95165;-75
2024/01/21 07:22:58;;;;;;;79.20;50.13;;;12.00;54.80;;;;;;4887811;28;99495;-76
2024/01/21 07:25:24;;;;;;;80.00;50.10;;;12.00;54.80;;;;;;4889888;28;95260;-74
2024/01/21 07:27:50;;;;;;;79.93;50.42;;;12.00;54.90;;;;;;4886849;28;94052;-70
2024/01/21 07:30:17;;;;;;;78.95;50.47;;;11.90;54.80;;;;;;4889851;28;95458;-75
2024/01/21 07:32:43;;;;;;;80.03;50.53;;;12.00;54.90;;;;;;4886201;28;100358;-70
2024/01/21 07:35:09;;;;;;;79.35;51.08;;;11.90;54.90;;;;;;4911427;23;94792;-79
2024/01/21 07:37:35;;;;;;;81.10;51.45;;;11.90;55.00;;;;;;4922442;28;95306;-86
2024/01/21 07:40:01;;;;;;;82.05;51.33;;;11.90;54.90;;;;;;4919436;28;94827;-86
2024/01/21 07:42:27;;;;;;;80.93;51.60;;;12.00;54.80;;;;;;4917975;28;96422;-86
2024/01/21 07:44:53;;;;;;;81.13;51.55;;;12.00;54.90;;;;;;4935785;28;99111;-85
2024/01/21 07:47:18;;;;;;;80.65;51.33;;;12.00;54.80;;;;;;4924599;28;94716;-85
2024/01/21 07:49:44;;;;;;;81.07;51.53;;;12.00;54.80;;;;;;4924116;28;95000;-86
2024/01/21 07:52:10;;;;;;;80.80;51.55;;;12.00;54.70;;;;;;4926845;28;94498;-86
2024/01/21 07:54:36;;;;;;;81.47;51.03;;;12.00;54.70;;;;;;4941364;28;94536;-86
2024/01/21 07:57:01;;;;;;;79.93;51.25;;;12.00;54.70;;;;;;4941746;28;94166;-85
2024/01/21 07:59:27;;;;;;;83.57;51.40;;;12.00;54.70;;;;;;4946638;28;93108;-86
2024/01/21 08:01:52;;;;;;;81.15;51.20;;;12.00;54.60;;;;;;4925237;28;96240;-86
2024/01/21 08:04:18;;;;;;;79.95;51.50;;;12.00;54.60;;;;;;4929444;28;94966;-85
2024/01/21 08:06:44;;;;;;;80.55;51.53;;;12.00;54.50;;;;;;4930617;28;95965;-85
2024/01/21 08:09:09;;;;;;;80.93;51.45;;;12.00;54.50;;;;;;4943384;28;94318;-85
2024/01/21 08:11:35;;;;;;;82.25;51.55;;;12.00;54.50;;;;;;4932312;28;96307;-85
2024/01/21 08:14:01;;;;;;;80.30;51.42;;;12.00;54.50;;;;;;4950026;28;94748;-86
2024/01/21 08:16:26;;;;;;;81.07;51.38;;;12.10;54.50;;;;;;4934445;28;94184;-84
2024/01/21 08:18:52;;;;;;;81.97;51.67;;;12.10;54.60;;;;;;4935505;28;94603;-86
2024/01/21 08:21:17;;;;;;;81.68;51.53;;;12.10;54.50;;;;;;4931115;28;94541;-85
2024/01/21 08:23:43;;;;;;;81.43;51.53;;;12.10;54.50;;;;;;4936157;28;95139;-85
2024/01/21 08:26:10;;;;;;;80.53;51.15;;;12.10;54.50;;;;;;4935001;28;95482;-89
2024/01/21 08:28:37;;;;;;;82.43;51.88;;;12.10;54.50;;;;;;4939469;28;94139;-87
2024/01/21 08:31:03;;;;;;;80.93;51.47;;;12.10;54.50;;;;;;4917880;28;97318;-81
2024/01/21 08:33:29;;;;;;;80.45;51.20;;;12.10;54.60;;;;;;4909241;28;95994;-80
2024/01/21 08:35:55;;;;;;;81.35;51.38;;;12.10;54.60;;;;;;4909889;28;94124;-80
2024/01/21 08:38:21;;;;;;;80.85;51.53;;;12.10;54.60;;;;;;4910866;28;94189;-80
2024/01/21 08:40:46;;;;;;;82.10;51.30;;;12.10;54.70;;;;;;4909533;28;99566;-80
2024/01/21 08:43:12;;;;;;;80.97;51.20;;;12.10;54.70;;;;;;4913844;28;95329;-79
2024/01/21 08:45:38;;;;;;;79.63;51.10;;;12.10;55.00;;;;;;4913605;28;95123;-78
2024/01/21 08:48:04;;;;;;;81.18;51.47;;;12.10;55.10;;;;;;4915356;28;94281;-79
2024/01/21 08:50:29;;;;;;;82.13;51.42;;;12.10;55.60;;;;;;4915869;28;96786;-78
2024/01/21 08:52:55;;;;;;;82.93;51.38;;;12.20;55.20;;;;;;4919801;28;94913;-86
2024/01/21 08:55:21;;;;;;;81.85;51.28;;;12.20;55.20;;;;;;4918317;28;95124;-86
2024/01/21 08:57:47;;;;;;;83.30;51.33;;;12.20;55.20;;;;;;4919726;28;94748;-85
2024/01/21 09:00:13;;;;;;;83.90;51.47;;;12.20;55.30;;;;;;4915279;28;95171;-85
2024/01/21 09:02:39;;;;;;;80.80;51.40;;;12.20;55.50;;;;;;4913622;28;94782;-84
2024/01/21 09:05:05;;;;;;;79.78;51.15;;;12.20;55.50;;;;;;4913446;28;93968;-83
2024/01/21 09:07:31;;;;;;;81.05;51.03;;;12.20;55.60;;;;;;4931178;28;94948;-84
2024/01/21 09:09:57;;;;;;;82.18;52.15;;;12.20;55.80;;;;;;4926165;28;94594;-83
2024/01/21 09:12:22;;;;;;;80.60;51.33;;;12.20;55.80;;;;;;4924804;28;96016;-85
2024/01/21 09:14:48;;;;;;;80.78;51.45;;;12.20;56.00;;;;;;4912700;28;94997;-79
2024/01/21 09:17:14;;;;;;;82.38;51.90;;;12.20;56.30;;;;;;4910565;28;94754;-77
2024/01/21 09:19:39;;;;;;;83.65;51.03;;;12.20;56.10;;;;;;4909551;28;95928;-78
2024/01/21 09:22:05;;;;;;;81.22;51.58;;;12.20;56.10;;;;;;4912334;28;95149;-77
2024/01/21 09:24:31;;;;;;;80.53;51.38;;;12.20;56.30;;;;;;4908532;28;94806;-78
2024/01/21 09:26:56;;;;;;;80.35;51.15;;;12.20;56.30;;;;;;4907683;28;95370;-77
2024/01/21 09:29:22;;;;;;;80.75;51.03;;;12.30;56.30;;;;;;4908876;28;95145;-77
2024/01/21 09:31:55;;;;;;;81.40;51.10;;;12.30;56.20;;;;;;4906305;28;94944;-78
2024/01/21 09:34:21;;;;;;;81.25;51.78;;;12.30;56.80;;;;;;4907035;28;95240;-77
2024/01/21 09:36:47;;;;;;;81.60;51.88;;;12.30;56.60;;;;;;4902887;28;93707;-78
2024/01/21 09:39:13;;;;;;;81.60;51.47;;;12.30;56.50;;;;;;4909210;28;94754;-77
2024/01/21 09:41:50;;;;;;;81.68;51.45;;;12.30;56.30;;;;;;4910701;28;94789;-77
2024/01/21 09:44:19;;;;;;;79.93;51.03;;;12.30;56.40;;;;;;4908791;28;96732;-78
2024/01/21 09:46:56;;;;;;;81.78;51.25;;;12.30;56.30;;;;;;4908400;28;95732;-78
2024/01/21 09:49:22;;;;;;;82.00;51.28;;;12.30;56.50;;;;;;4909124;28;95311;-77
2024/01/21 09:51:49;;;;;;;85.18;51.47;;;12.30;56.40;;;;;;4906925;28;95556;-77
2024/01/21 09:54:15;;;;;;;83.45;52.00;;;12.30;56.60;;;;;;4909898;28;95041;-76
2024/01/21 09:56:42;;;;;;;85.55;52.08;;;12.30;56.50;;;;;;4908099;28;94610;-77
2024/01/21 09:59:09;;;;;;;87.57;52.40;;;12.30;56.50;;;;;;4909278;28;95170;-78
2024/01/21 10:01:36;;;;;;;81.80;52.03;;;12.30;56.40;;;;;;4903191;28;94445;-77
2024/01/21 10:04:02;;;;;;;84.32;51.92;;;12.30;56.30;;;;;;4911151;28;95459;-77
2024/01/21 10:06:28;;;;;;;85.88;52.13;;;12.40;56.30;;;;;;4914465;28;95105;-77
2024/01/21 10:09:14;;;;;;;86.65;52.47;;;12.30;56.20;;;;;;4910303;28;96633;-77
2024/01/21 10:11:40;;;;;;;89.88;52.25;;;12.40;56.30;;;;;;4909011;28;95615;-77
2024/01/21 10:14:06;;;;;;;85.70;52.85;;;12.30;56.20;;;;;;4907993;28;95935;-77
2024/01/21 10:16:32;;;;;;;86.15;52.50;;;12.30;56.20;;;;;;4910553;28;95802;-77
2024/01/21 10:18:58;;;;;;;83.43;52.55;;;12.40;56.20;;;;;;4913556;28;94585;-77
2024/01/21 10:21:23;;;;;;;84.07;52.72;;;12.40;56.30;;;;;;4908299;28;94676;-77
2024/01/21 10:23:49;;;;;;;85.80;52.78;;;12.50;56.20;;;;;;4911065;28;95045;-78
2024/01/21 10:26:15;;;;;;;87.05;52.75;;;12.50;56.30;;;;;;4907113;28;94753;-77
2024/01/21 10:28:41;;;;;;;87.82;52.75;;;12.50;56.30;;;;;;4907676;28;94962;-86
2024/01/21 10:31:07;;;;;;;85.82;52.58;;;12.60;56.50;;;;;;4907639;28;95422;-80
2024/01/21 10:33:33;;;;;;;84.22;52.45;;;12.60;56.20;;;;;;4908089;28;96590;-84
2024/01/21 10:36:01;;;;;;;85.35;52.53;;;12.60;56.50;;;;;;4900893;28;94760;-76
2024/01/21 10:38:36;;;;;;;85.95;52.25;;;12.60;56.60;;;;;;4908771;28;95930;-76
2024/01/21 10:41:03;;;;;;;83.97;52.38;;;12.60;56.50;;;;;;4907695;28;95835;-75
2024/01/21 10:43:31;;;;;;;86.10;51.75;;;12.60;56.60;;;;;;4909859;28;95027;-77
2024/01/21 10:45:58;;;;;;;86.10;52.90;;;12.70;56.70;;;;;;4910421;28;95168;-75
2024/01/21 10:48:25;;;;;;;83.63;52.42;;;12.70;56.80;;;;;;4910980;28;97774;-75
2024/01/21 10:50:52;;;;;;;89.30;52.75;;;12.70;56.70;;;;;;4918834;28;94645;-87
2024/01/21 10:53:19;;;;;;;83.43;52.40;;;12.70;56.80;;;;;;4919663;28;95368;-85
2024/01/21 10:55:45;;;;;;;86.57;52.67;;;12.70;57.00;;;;;;4942611;28;95936;-82
2024/01/21 10:58:11;;;;;;;85.40;52.50;;;12.70;57.20;;;;;;4922186;28;95966;-82
2024/01/21 11:00:37;;;;;;;84.85;52.38;;;12.70;57.50;;;;;;4931101;28;99021;-82
2024/01/21 11:03:26;;;;;;;84.88;52.15;;;12.70;57.40;;;;;;4911382;28;95513;-81
2024/01/21 11:06:03;;;;;;;82.13;51.97;;;12.70;57.60;;;;;;4916222;28;94478;-80
2024/01/21 11:08:29;;;;;;;82.90;52.03;;;12.70;57.70;;;;;;4909860;28;94411;-81
2024/01/21 11:11:15;;;;;;;85.18;51.75;;;12.70;58.30;;;;;;4909666;28;95363;-80
2024/01/21 11:13:42;;;;;;;82.20;51.72;;;12.80;57.70;;;;;;4911441;28;94242;-81
2024/01/21 11:16:31;;;;;;;84.63;51.80;;;12.80;57.70;;;;;;4908918;28;93461;-82
2024/01/21 11:18:58;;;;;;;83.32;51.72;;;12.80;57.70;;;;;;4901534;28;97409;-81
2024/01/21 11:21:25;;;;;;;83.22;51.80;;;12.80;57.70;;;;;;4910708;28;94984;-81
2024/01/21 11:24:05;;;;;;;85.38;52.20;;;12.80;57.60;;;;;;4923675;28;95971;-81
2024/01/21 11:26:34;;;;;;;86.22;51.90;;;12.80;57.70;;;;;;4910431;28;98248;-76
2024/01/21 11:29:02;;;;;;;81.70;51.40;;;12.80;57.60;;;;;;4912438;28;94711;-76
2024/01/21 11:31:34;;;;;;;83.43;52.05;;;12.90;57.50;;;;;;4911030;28;95798;-80
2024/01/21 11:34:10;;;;;;;84.40;51.83;;;12.90;57.50;;;;;;4911665;28;95525;-81
2024/01/21 11:36:38;;;;;;;83.63;51.63;;;12.90;57.50;;;;;;4914726;28;94055;-80
2024/01/21 11:39:06;;;;;;;83.32;52.10;;;12.90;57.50;;;;;;4907763;28;95595;-80
2024/01/21 11:41:43;;;;;;;83.05;52.10;;;12.90;57.50;;;;;;4906545;28;95046;-76
2024/01/21 11:44:14;;;;;;;87.95;52.38;;;12.90;57.40;;;;;;4912908;28;96769;-81
2024/01/21 11:46:43;;;;;;;84.57;52.15;;;13.00;57.50;;;;;;4914499;28;94599;-86
2024/01/21 11:49:09;;;;;;;84.45;52.15;;;13.00;57.50;;;;;;4914013;28;96650;-82
2024/01/21 11:51:36;;;;;;;83.10;51.83;;;13.10;57.30;;;;;;4914631;28;95907;-75
2024/01/21 11:54:02;;;;;;;84.70;51.90;;;13.00;57.30;;;;;;4910506;28;95019;-77
2024/01/21 11:56:28;;;;;;;82.82;51.80;;;13.10;57.40;;;;;;4919387;28;94978;-87
2024/01/21 11:58:53;;;;;;;85.65;52.10;;;13.10;57.30;;;;;;4915033;28;94881;-84
2024/01/21 12:01:21;;;;;;;84.82;52.17;;;13.10;57.30;;;;;;4915745;28;95087;-82
2024/01/21 12:03:48;;;;;;;85.22;52.30;;;13.20;57.40;;;;;;4914748;28;94942;-82
2024/01/21 12:06:15;;;;;;;85.93;52.13;;;13.10;56.90;;;;;;4917433;28;94241;-82
2024/01/21 12:08:43;;;;;;;83.00;51.60;;;13.10;56.90;;;;;;4912703;28;95918;-81
2024/01/21 12:11:09;;;;;;;83.80;52.38;;;13.10;56.90;;;;;;4911125;28;97788;-81
2024/01/21 12:13:36;;;;;;;83.45;52.10;;;13.10;56.70;;;;;;4911575;28;95415;-79
2024/01/21 12:16:02;;;;;;;82.13;51.50;;;13.10;56.80;;;;;;4916785;28;94644;-78
2024/01/21 12:18:29;;;;;;;82.93;51.97;;;13.00;56.70;;;;;;4910667;28;95948;-80
2024/01/21 12:20:55;;;;;;;82.88;51.60;;;13.10;56.70;;;;;;4911777;28;95347;-75
2024/01/21 12:23:23;;;;;;;84.13;51.78;;;13.00;56.60;;;;;;4911699;28;95822;-76